createdAt,value
2019-05-07T05:59:51.318Z,101230.30
2019-05-07T06:00:33.348Z,101204.36
2019-05-07T06:01:10.041Z,101219.75
2019-05-07T06:01:59.258Z,101192.20
2019-05-07T06:02:53.164Z,101239.58
2019-05-07T06:03:39.337Z,101280.70
2019-05-07T06:04:15.347Z,101316.20
2019-05-07T06:04:56.271Z,101349.39
2019-05-07T06:05:52.183Z,101345.01
2019-05-07T06:06:27.860Z,101337.37
2019-05-07T06:07:14.611Z,101327.16
2019-05-07T06:07:58.369Z,101339.36
2019-05-07T06:08:37.616Z,101339.36
2019-05-07T06:09:16.296Z,101351.53
2019-05-07T06:10:02.627Z,101351.53
2019-05-07T06:10:47.305Z,101335.45
2019-05-07T06:11:34.076Z,101332.67
2019-05-07T06:12:19.014Z,101351.36
2019-05-07T06:13:02.940Z,101345.44
2019-05-07T06:13:42.887Z,101330.59
2019-05-07T06:14:22.293Z,101363.06
2019-05-07T06:15:03.288Z,101366.59
2019-05-07T06:15:54.930Z,101350.83
2019-05-07T06:16:52.660Z,101347.42
2019-05-07T06:17:46.516Z,101400.34
2019-05-07T06:18:41.805Z,101370.81
2019-05-07T06:19:36.292Z,101364.12
2019-05-07T06:20:28.476Z,101386.31
2019-05-07T06:21:06.385Z,101361.00
2019-05-07T06:22:02.002Z,101334.19
2019-05-07T06:22:52.854Z,101375.23
2019-05-07T06:23:32.684Z,101375.23
2019-05-07T06:24:28.301Z,101398.17
2019-05-07T06:25:14.942Z,101395.66
2019-05-07T06:25:52.246Z,101379.20
2019-05-07T06:26:28.262Z,101395.35
2019-05-07T06:27:06.138Z,101368.45
2019-05-07T06:27:42.957Z,101368.45
2019-05-07T06:28:22.153Z,101357.55
2019-05-07T06:28:57.761Z,101345.27
2019-05-07T06:29:34.361Z,101371.69
2019-05-07T06:30:12.195Z,101371.69
2019-05-07T06:30:48.483Z,101348.16
2019-05-07T06:31:24.438Z,101368.89
2019-05-07T15:44:38.513Z,101053.58
2019-05-07T15:45:21.683Z,101056.74
2019-05-07T15:45:58.373Z,101088.56
2019-05-07T15:46:35.597Z,101178.92
2019-05-07T15:47:13.708Z,101170.84
2019-05-07T15:47:53.683Z,101167.73
2019-05-07T15:48:32.647Z,101138.84
2019-05-07T15:49:12.390Z,101138.84
2019-05-07T15:49:49.136Z,101178.35
2019-05-07T15:50:32.214Z,101180.23
2019-05-07T15:51:11.843Z,101163.98
2019-05-07T15:51:47.611Z,101181.14
2019-05-07T15:52:41.957Z,101172.47
2019-05-07T15:53:22.458Z,101185.11
2019-05-07T15:53:59.911Z,101145.97
2019-05-07T15:54:36.367Z,101138.65
2019-05-07T15:55:15.412Z,101188.52
2019-05-07T15:55:52.534Z,101188.52
2019-05-07T15:56:29.741Z,101185.33
2019-05-07T15:57:09.342Z,101159.91
2019-05-07T15:57:45.862Z,101179.86
2019-05-07T15:58:23.443Z,101190.69
2019-05-07T15:59:02.148Z,101148.94
2019-05-07T15:59:37.969Z,101144.33
2019-05-07T16:00:22.415Z,101144.33
2019-05-07T16:00:58.664Z,101176.43
2019-05-07T16:01:35.815Z,101148.80
2019-05-07T16:02:22.525Z,101148.80
2019-05-07T16:03:06.533Z,101172.47
2019-05-07T16:03:47.442Z,101157.27
2019-05-07T16:04:26.287Z,101157.27
2019-05-07T16:05:05.014Z,101136.61
2019-05-07T16:05:42.865Z,101157.98
2019-05-07T16:06:21.882Z,101144.28
2019-05-07T16:07:02.241Z,101144.28
2019-05-07T16:07:41.945Z,101151.09
2019-05-07T16:08:19.541Z,101143.84
2019-05-07T16:08:57.366Z,101136.98
2019-05-07T16:09:45.705Z,101150.55
2019-05-07T16:10:23.781Z,101152.77
2019-05-07T16:11:01.599Z,101147.27
2019-05-07T16:11:38.433Z,101171.14
2019-05-07T16:12:16.978Z,101171.14
2019-05-07T16:12:54.423Z,101156.16
2019-05-07T16:13:33.061Z,101132.98
2019-05-07T16:14:14.189Z,101138.42
2019-05-07T16:14:52.433Z,101116.52
2019-05-07T16:15:32.001Z,101139.13
2019-05-07T16:16:14.713Z,101141.80
2019-05-07T16:16:52.803Z,101172.59
2019-05-07T16:17:32.837Z,101144.02
2019-05-07T16:18:28.426Z,101045.25
2019-05-07T16:19:08.794Z,101023.84
2019-05-07T16:19:44.623Z,101018.83
2019-05-07T16:20:22.834Z,101018.83
2019-05-07T16:20:58.283Z,100994.01
2019-05-07T16:21:36.007Z,100985.90
